createdAt,value
2018-01-12T00:02:01.118Z,1.00
2018-01-12T00:04:28.635Z,1.00
2018-01-12T00:06:56.451Z,1.10
2018-01-12T00:09:24.047Z,1.10
2018-01-12T00:11:51.562Z,1.10
2018-01-12T00:14:19.079Z,1.10
2018-01-12T00:16:46.582Z,1.10
2018-01-12T00:19:14.173Z,1.00
2018-01-12T00:21:41.670Z,0.90
2018-01-12T00:24:09.299Z,1.00
2018-01-12T00:26:36.802Z,0.90
2018-01-12T00:29:04.323Z,0.90
2018-01-12T00:31:31.826Z,0.90
2018-01-12T00:34:00.845Z,0.80
2018-01-12T00:36:29.110Z,0.80
2018-01-12T00:38:56.642Z,0.80
2018-01-12T00:41:24.151Z,0.80
2018-01-12T00:43:51.670Z,0.90
2018-01-12T00:46:19.166Z,0.90
2018-01-12T00:48:46.686Z,0.90
2018-01-12T00:51:14.190Z,0.80
2018-01-12T00:53:41.710Z,0.80
2018-01-12T00:56:09.215Z,0.80
2018-01-12T00:58:36.730Z,0.80
2018-01-12T01:01:04.326Z,0.70
2018-01-12T01:03:31.844Z,0.60
2018-01-12T01:06:00.850Z,0.60
2018-01-12T01:08:29.134Z,0.70
2018-01-12T01:10:57.399Z,0.70
2018-01-12T01:13:25.702Z,0.70
2018-01-12T01:15:53.212Z,0.60
2018-01-12T01:18:20.714Z,0.70
2018-01-12T01:20:48.240Z,0.60
2018-01-12T01:23:15.834Z,0.70
2018-01-12T01:25:43.355Z,0.70
2018-01-12T01:28:10.859Z,0.70
2018-01-12T01:30:38.382Z,0.60
2018-01-12T01:33:05.888Z,0.70
2018-01-12T01:35:33.405Z,0.60
2018-01-12T01:38:01.686Z,0.70
2018-01-12T01:40:29.966Z,0.70
2018-01-12T01:42:58.235Z,0.80
2018-01-12T01:45:26.523Z,0.70
2018-01-12T01:47:54.031Z,0.70
2018-01-12T01:50:21.650Z,0.80
2018-01-12T01:52:49.158Z,0.70
2018-01-12T01:55:16.677Z,0.70
2018-01-12T01:57:44.182Z,0.70
2018-01-12T02:00:11.710Z,0.60
2018-01-12T02:02:39.214Z,0.60
2018-01-12T02:05:07.506Z,0.60
2018-01-12T02:07:35.007Z,0.60
2018-01-12T02:10:02.526Z,0.60
2018-01-12T02:12:30.095Z,0.60
2018-01-12T02:14:57.618Z,0.60
2018-01-12T02:17:25.124Z,0.70
2018-01-12T02:19:52.667Z,0.60
2018-01-12T02:22:20.227Z,0.70
2018-01-12T02:24:47.786Z,0.60
2018-01-12T02:27:15.294Z,0.70
2018-01-12T02:29:42.902Z,0.70
2018-01-12T02:32:10.410Z,0.70
2018-01-12T02:34:37.931Z,0.70
2018-01-12T02:37:05.430Z,0.70
2018-01-12T02:39:32.951Z,0.70
2018-01-12T02:42:00.500Z,0.70
2018-01-12T02:44:28.031Z,0.70
2018-01-12T02:46:56.302Z,0.80
2018-01-12T02:49:24.591Z,0.80
2018-01-12T02:51:52.879Z,0.80
2018-01-12T02:54:20.760Z,0.80
2018-01-12T02:56:48.306Z,0.90
2018-01-12T02:59:15.822Z,0.80
2018-01-12T03:01:44.836Z,0.80
2018-01-12T03:04:13.145Z,0.80
2018-01-12T03:06:40.651Z,0.80
2018-01-12T03:09:08.156Z,0.80
2018-01-12T03:11:35.706Z,0.90
2018-01-12T03:14:03.206Z,0.80
2018-01-12T03:16:30.866Z,0.80
2018-01-12T03:18:58.338Z,0.70
2018-01-12T03:21:25.943Z,0.70
2018-01-12T03:23:53.533Z,0.70
2018-01-12T03:26:21.063Z,0.70
2018-01-12T03:28:48.622Z,0.80
2018-01-12T03:31:16.145Z,0.80
2018-01-12T03:33:43.656Z,0.90
2018-01-12T03:36:11.174Z,0.80
2018-01-12T03:38:39.442Z,0.80
2018-01-12T03:41:06.958Z,0.80
2018-01-12T03:43:34.503Z,0.90
2018-01-12T03:46:02.022Z,0.90
2018-01-12T03:48:30.294Z,0.80
2018-01-12T03:50:58.574Z,0.80
2018-01-12T03:53:26.842Z,0.80
2018-01-12T03:55:54.434Z,0.80
2018-01-12T03:58:21.998Z,0.80
2018-01-12T04:00:49.526Z,0.80
2018-01-12T04:03:17.799Z,0.80
2018-01-12T04:05:45.310Z,0.80
2018-01-12T04:08:12.811Z,0.80
2018-01-12T04:10:40.330Z,0.80
2018-01-12T04:13:07.831Z,0.80
2018-01-12T04:15:36.117Z,0.80
2018-01-12T04:18:04.390Z,0.80
2018-01-12T04:20:32.687Z,0.80
2018-01-12T04:23:00.190Z,0.80
2018-01-12T04:25:27.706Z,0.90
2018-01-12T04:27:55.262Z,0.90
2018-01-12T04:30:22.822Z,0.80
2018-01-12T04:32:50.334Z,0.80
2018-01-12T04:35:17.856Z,0.80
2018-01-12T04:37:45.359Z,0.80
2018-01-12T04:40:12.963Z,0.80
2018-01-12T04:42:40.470Z,0.90
2018-01-12T04:45:08.074Z,0.90
2018-01-12T04:47:35.639Z,0.90
2018-01-12T04:50:03.162Z,0.90
2018-01-12T04:52:30.751Z,0.90
2018-01-12T04:54:58.313Z,0.80
2018-01-12T04:57:25.831Z,0.80
2018-01-12T04:59:53.359Z,0.80
2018-01-12T05:02:20.886Z,0.80
2018-01-12T05:04:48.396Z,0.80
2018-01-12T05:07:16.012Z,0.80
2018-01-12T05:09:43.520Z,0.80
2018-01-12T05:12:11.043Z,0.90
2018-01-12T05:14:38.550Z,0.80
2018-01-12T05:17:06.843Z,0.90
2018-01-12T05:19:35.115Z,0.90
2018-01-12T05:22:03.406Z,0.90
2018-01-12T05:24:30.910Z,1.00
2018-01-12T05:26:58.433Z,0.90
2018-01-12T05:29:25.934Z,0.90
2018-01-12T05:31:54.964Z,0.90
2018-01-12T05:34:23.249Z,0.90
2018-01-12T05:36:50.766Z,0.90
2018-01-12T05:39:18.270Z,0.90
2018-01-12T05:41:45.793Z,0.80
2018-01-12T05:44:13.295Z,0.80
2018-01-12T05:46:40.842Z,0.90
2018-01-12T05:49:08.402Z,0.90
2018-01-12T05:51:35.922Z,0.90
2018-01-12T05:54:04.190Z,1.00
2018-01-12T05:56:31.794Z,1.00
2018-01-12T05:58:59.298Z,1.00
2018-01-12T06:01:38.806Z,1.00
2018-01-12T06:04:18.404Z,0.90
2018-01-12T06:06:46.695Z,0.90
2018-01-12T06:09:14.963Z,0.90
2018-01-12T06:11:43.250Z,0.90
2018-01-12T06:14:11.524Z,0.90
2018-01-12T06:16:40.186Z,0.90
2018-01-12T06:19:07.783Z,0.90
2018-01-12T06:21:35.301Z,0.90
2018-01-12T06:24:02.802Z,0.90
2018-01-12T06:26:30.321Z,0.90
2018-01-12T06:28:57.823Z,0.80
2018-01-12T06:31:25.343Z,0.90
2018-01-12T06:33:52.930Z,0.90
2018-01-12T06:36:20.441Z,0.90
2018-01-12T06:38:47.946Z,0.80
2018-01-12T06:41:15.458Z,0.90
2018-01-12T06:43:42.954Z,0.90
2018-01-12T06:46:10.527Z,0.90
2018-01-12T06:48:38.087Z,0.80
2018-01-12T06:51:05.614Z,0.80
2018-01-12T06:53:33.886Z,0.90
2018-01-12T06:56:02.178Z,1.00
2018-01-12T06:58:30.446Z,1.00
2018-01-12T07:00:58.002Z,1.00
2018-01-12T07:03:26.306Z,0.90
2018-01-12T07:05:53.866Z,0.90
2018-01-12T07:08:21.386Z,1.00
2018-01-12T07:10:48.896Z,1.00
2018-01-12T07:13:16.414Z,1.00
2018-01-12T07:15:44.710Z,1.00
2018-01-12T07:18:12.231Z,1.00
2018-01-12T07:20:51.470Z,1.00
2018-01-12T07:23:31.050Z,1.00
2018-01-12T07:25:58.551Z,1.00
2018-01-12T07:28:26.075Z,1.00
2018-01-12T07:30:53.583Z,1.00
2018-01-12T07:33:21.107Z,1.10
2018-01-12T07:35:48.643Z,1.10
2018-01-12T07:38:16.162Z,1.10
2018-01-12T07:40:43.690Z,1.20
2018-01-12T07:43:11.203Z,1.20
2018-01-12T07:45:38.711Z,1.20
2018-01-12T07:48:06.998Z,1.30
2018-01-12T07:50:34.541Z,1.30
2018-01-12T07:53:07.815Z,1.30
2018-01-12T07:55:35.334Z,1.30
2018-01-12T07:58:03.618Z,1.20
2018-01-12T08:00:37.702Z,1.20
2018-01-12T08:03:05.238Z,1.20
2018-01-12T08:05:32.746Z,1.20
2018-01-12T08:08:01.030Z,1.20
2018-01-12T08:10:28.535Z,1.20
2018-01-12T08:12:56.051Z,1.10
2018-01-12T08:15:23.586Z,1.00
2018-01-12T08:17:51.870Z,0.90
2018-01-12T08:20:20.134Z,0.90
2018-01-12T08:22:48.422Z,0.90
2018-01-12T08:25:16.694Z,1.00
2018-01-12T08:27:44.974Z,0.80
2018-01-12T08:30:13.242Z,0.90
2018-01-12T08:32:41.538Z,0.90
2018-01-12T08:35:09.043Z,0.90
2018-01-12T08:37:36.565Z,0.90
2018-01-12T08:40:04.066Z,0.90
2018-01-12T08:42:31.847Z,1.00
2018-01-12T08:44:59.350Z,1.10
2018-01-12T08:47:26.870Z,1.10
2018-01-12T08:49:55.137Z,1.30
2018-01-12T08:52:22.653Z,1.30
2018-01-12T08:54:50.187Z,1.40
2018-01-12T08:57:18.462Z,1.30
2018-01-12T08:59:45.970Z,1.30
2018-01-12T09:02:13.492Z,1.60
2018-01-12T09:04:41.024Z,1.40
2018-01-12T09:07:09.299Z,1.50
2018-01-12T09:09:37.586Z,1.60
2018-01-12T09:12:05.100Z,1.60
2018-01-12T09:14:44.522Z,1.40
2018-01-12T09:17:12.026Z,1.60
2018-01-12T09:19:48.280Z,1.50
2018-01-12T09:22:27.726Z,1.50
2018-01-12T09:24:56.017Z,1.20
2018-01-12T09:27:23.525Z,1.20
2018-01-12T09:29:51.050Z,1.30
2018-01-12T09:32:18.558Z,1.30
2018-01-12T09:34:47.454Z,1.30
2018-01-12T09:37:14.969Z,1.30
2018-01-12T09:39:43.402Z,1.40
2018-01-12T09:42:11.674Z,1.60
2018-01-12T09:44:39.966Z,1.50
2018-01-12T09:47:20.124Z,1.60
2018-01-12T09:49:47.654Z,1.60
2018-01-12T09:52:15.165Z,1.60
2018-01-12T09:54:42.695Z,1.80
2018-01-12T09:57:10.965Z,2.00
2018-01-12T09:59:44.133Z,1.80
2018-01-12T10:02:11.636Z,1.80
2018-01-12T10:04:39.156Z,1.80
2018-01-12T10:07:20.062Z,1.80
2018-01-12T10:09:49.571Z,1.80
2018-01-12T10:12:17.084Z,1.90
2018-01-12T10:14:44.603Z,2.00
2018-01-12T10:17:12.109Z,2.00
2018-01-12T10:22:40.305Z,2.20
2018-01-12T10:25:07.818Z,2.10
2018-01-12T10:27:35.322Z,2.20
2018-01-12T10:30:03.606Z,2.30
2018-01-12T10:35:35.299Z,2.20
2018-01-12T10:38:02.800Z,2.10
2018-01-12T10:40:53.009Z,2.20
2018-01-12T10:43:20.506Z,2.20
2018-01-12T10:45:53.849Z,2.40
2018-01-12T10:48:33.189Z,2.40
2018-01-12T10:51:12.654Z,2.40
2018-01-12T10:53:40.922Z,2.30
2018-01-12T10:56:08.421Z,2.30
2018-01-12T10:58:35.948Z,2.30
2018-01-12T11:01:10.118Z,2.60
2018-01-12T11:03:37.634Z,2.60
2018-01-12T11:06:05.135Z,2.60
2018-01-12T11:08:33.417Z,2.60
2018-01-12T11:11:00.921Z,2.60
2018-01-12T11:13:29.202Z,2.70
2018-01-12T11:15:57.473Z,2.70
2018-01-12T11:18:25.006Z,2.60
2018-01-12T11:20:52.516Z,2.80
2018-01-12T11:23:20.039Z,2.80
2018-01-12T11:25:48.313Z,3.10
2018-01-12T11:28:16.612Z,3.30
2018-01-12T11:30:44.129Z,3.30
2018-01-12T11:33:11.639Z,3.20
2018-01-12T11:35:39.135Z,3.40
2018-01-12T11:38:06.961Z,3.50
2018-01-12T11:40:34.462Z,3.60
2018-01-12T11:43:01.963Z,3.60
2018-01-12T11:45:29.479Z,3.60
2018-01-12T11:47:56.974Z,3.60
2018-01-12T11:50:25.262Z,3.90
2018-01-12T11:52:52.762Z,3.90
2018-01-12T11:55:20.274Z,4.20
2018-01-12T11:57:47.777Z,4.20
2018-01-12T12:00:15.294Z,4.40
2018-01-12T12:02:42.791Z,4.60
2018-01-12T12:05:10.306Z,4.70
2018-01-12T12:07:37.801Z,4.80
2018-01-12T12:10:05.318Z,4.60
2018-01-12T12:12:32.818Z,4.40
2018-01-12T12:15:00.329Z,4.20
2018-01-12T12:17:27.830Z,4.20
2018-01-12T12:19:55.346Z,3.90
2018-01-12T12:22:22.849Z,3.70
2018-01-12T12:24:50.361Z,3.60
2018-01-12T12:27:17.859Z,3.50
2018-01-12T12:29:45.370Z,3.40
2018-01-12T12:32:13.638Z,3.30
2018-01-12T12:34:41.934Z,3.60
2018-01-12T12:37:09.438Z,3.60
2018-01-12T12:39:36.958Z,3.70
2018-01-12T12:42:04.458Z,3.80
2018-01-12T12:44:31.974Z,4.20
2018-01-12T12:46:59.469Z,4.70
2018-01-12T12:49:26.977Z,5.00
2018-01-12T12:51:54.477Z,5.30
2018-01-12T12:54:21.998Z,5.10
2018-01-12T12:56:49.498Z,5.10
2018-01-12T12:59:17.018Z,5.30
2018-01-12T13:01:44.517Z,5.40
2018-01-12T13:04:12.030Z,5.10
2018-01-12T13:06:39.531Z,5.10
2018-01-12T13:09:07.055Z,4.90
2018-01-12T13:11:34.562Z,5.00
2018-01-12T13:14:02.083Z,4.90
2018-01-12T13:16:29.586Z,4.80
2018-01-12T13:18:57.450Z,4.50
2018-01-12T13:21:24.955Z,4.50
2018-01-12T13:23:52.470Z,4.60
2018-01-12T13:26:19.961Z,4.40
2018-01-12T13:28:47.482Z,4.30
2018-01-12T13:31:14.978Z,4.20
2018-01-12T13:33:42.481Z,4.10
2018-01-12T13:36:09.994Z,4.00
2018-01-12T13:38:37.507Z,4.10
2018-01-12T13:41:05.022Z,3.90
2018-01-12T13:43:32.522Z,3.80
2018-01-12T13:46:00.036Z,3.80
2018-01-12T13:48:27.541Z,3.90
2018-01-12T13:50:55.058Z,3.80
2018-01-12T13:53:22.554Z,3.70
2018-01-12T13:55:50.066Z,3.50
2018-01-12T13:58:17.562Z,3.40
2018-01-12T14:00:45.075Z,3.40
2018-01-12T14:03:12.579Z,3.30
2018-01-12T14:05:40.090Z,3.50
2018-01-12T14:08:07.590Z,3.60
2018-01-12T14:10:35.108Z,3.80
2018-01-12T14:13:02.614Z,3.60
2018-01-12T14:15:30.133Z,3.50
2018-01-12T14:17:57.642Z,3.30
2018-01-12T14:20:25.158Z,3.20
2018-01-12T14:22:52.665Z,3.10
2018-01-12T14:25:20.948Z,3.00
2018-01-12T14:27:49.214Z,3.00
2018-01-12T14:30:16.726Z,2.90
2018-01-12T14:32:44.224Z,3.00
2018-01-12T14:35:11.744Z,3.00
2018-01-12T14:37:39.243Z,2.90
2018-01-12T14:40:06.762Z,3.00
2018-01-12T14:42:34.274Z,3.00
2018-01-12T14:45:02.558Z,3.00
2018-01-12T14:47:30.058Z,3.00
2018-01-12T14:49:57.569Z,3.00
2018-01-12T14:52:25.834Z,3.00
2018-01-12T14:54:54.119Z,2.90
2018-01-12T14:57:22.387Z,2.90
2018-01-12T14:59:50.671Z,2.80
2018-01-12T15:02:18.937Z,2.80
2018-01-12T15:04:47.222Z,2.80
2018-01-12T15:07:15.490Z,2.70
2018-01-12T15:09:43.769Z,2.60
2018-01-12T15:12:12.031Z,2.60
2018-01-12T15:14:40.330Z,2.50
2018-01-12T15:17:08.594Z,2.50
2018-01-12T15:19:36.882Z,2.50
2018-01-12T15:22:05.149Z,2.50
2018-01-12T15:24:33.429Z,2.40
2018-01-12T15:27:01.694Z,2.30
2018-01-12T15:29:29.982Z,2.20
2018-01-12T15:31:58.250Z,2.20
2018-01-12T15:34:26.538Z,2.20
2018-01-12T15:36:54.819Z,2.10
2018-01-12T15:39:23.082Z,2.10
2018-01-12T15:41:51.358Z,2.10
2018-01-12T15:44:19.617Z,2.20
2018-01-12T15:46:47.130Z,2.20
2018-01-12T15:49:14.627Z,2.20
2018-01-12T15:51:42.138Z,2.20
2018-01-12T15:54:09.638Z,2.20
2018-01-12T15:56:37.146Z,2.20
2018-01-12T15:59:04.650Z,2.40
2018-01-12T16:01:32.162Z,2.40
2018-01-12T16:03:59.668Z,2.50
2018-01-12T16:06:27.183Z,2.40
2018-01-12T16:08:54.677Z,2.50
2018-01-12T16:11:22.190Z,2.40
2018-01-12T16:13:49.689Z,2.50
2018-01-12T16:16:17.206Z,2.50
2018-01-12T16:18:44.706Z,2.60
2018-01-12T16:21:12.218Z,2.50
2018-01-12T16:23:39.714Z,2.40
2018-01-12T16:26:07.225Z,2.50
2018-01-12T16:28:35.485Z,2.50
2018-01-12T16:31:03.769Z,2.50
2018-01-12T16:33:32.030Z,2.50
2018-01-12T16:35:59.545Z,2.40
2018-01-12T16:38:27.038Z,2.40
2018-01-12T16:40:54.558Z,2.50
2018-01-12T16:43:22.054Z,2.60
2018-01-12T16:45:49.569Z,2.60
2018-01-12T16:48:17.062Z,2.50
2018-01-12T16:50:44.576Z,2.40
2018-01-12T16:53:12.073Z,2.40
2018-01-12T16:55:39.595Z,2.50
2018-01-12T16:58:07.090Z,2.50
2018-01-12T17:00:34.605Z,2.50
2018-01-12T17:03:02.101Z,2.50
2018-01-12T17:05:29.620Z,2.60
2018-01-12T17:07:57.117Z,2.50
2018-01-12T17:10:24.631Z,2.60
2018-01-12T17:12:52.130Z,2.60
2018-01-12T17:15:19.646Z,2.50
2018-01-12T17:17:47.145Z,2.70
2018-01-12T17:20:14.657Z,2.60
2018-01-12T17:22:42.922Z,2.60
2018-01-12T17:25:11.206Z,2.50
2018-01-12T17:27:39.478Z,2.30
2018-01-12T17:30:07.762Z,2.30
2018-01-12T17:32:35.262Z,2.30
2018-01-12T17:35:02.777Z,2.40
2018-01-12T17:37:30.294Z,2.40
2018-01-12T17:39:57.799Z,2.40
2018-01-12T17:42:25.314Z,2.40
2018-01-12T17:44:52.814Z,2.40
2018-01-12T17:47:20.330Z,2.40
2018-01-12T17:49:47.834Z,2.30
2018-01-12T17:52:15.356Z,2.20
2018-01-12T17:54:42.867Z,2.10
2018-01-12T17:57:10.382Z,2.10
2018-01-12T17:59:38.650Z,2.00
2018-01-12T18:02:06.170Z,2.00
2018-01-12T18:04:33.666Z,2.00
2018-01-12T18:07:01.177Z,2.00
2018-01-12T18:09:28.678Z,2.00
2018-01-12T18:11:56.222Z,2.00
2018-01-12T18:14:23.718Z,1.90
2018-01-12T18:16:51.994Z,1.90
2018-01-12T18:19:20.266Z,2.10
2018-01-12T18:21:48.546Z,2.00
2018-01-12T18:24:16.809Z,1.90
2018-01-12T18:26:45.086Z,1.90
2018-01-12T18:29:13.351Z,2.00
2018-01-12T18:31:40.870Z,1.90
2018-01-12T18:34:08.378Z,1.90
2018-01-12T18:36:36.658Z,1.70
2018-01-12T18:39:04.922Z,1.80
2018-01-12T18:41:32.438Z,1.70
2018-01-12T18:43:59.938Z,1.90
2018-01-12T18:46:27.786Z,1.80
2018-01-12T18:48:55.281Z,1.90
2018-01-12T18:51:23.557Z,1.80
2018-01-12T18:53:51.822Z,1.80
2018-01-12T18:56:20.110Z,1.80
2018-01-12T18:58:48.366Z,1.80
2018-01-12T19:01:15.881Z,1.80
2018-01-12T19:03:43.674Z,1.80
2018-01-12T19:06:11.186Z,1.70
2018-01-12T19:08:38.686Z,1.80
2018-01-12T19:11:06.193Z,1.80
2018-01-12T19:13:33.695Z,1.70
2018-01-12T19:16:01.531Z,1.70
2018-01-12T19:18:29.030Z,1.70
2018-01-12T19:20:56.542Z,1.70
2018-01-12T19:23:24.042Z,1.70
2018-01-12T19:25:51.569Z,1.70
2018-01-12T19:28:19.066Z,1.70
2018-01-12T19:30:46.572Z,1.70
2018-01-12T19:33:14.087Z,1.70
2018-01-12T19:35:41.590Z,1.70
2018-01-12T19:38:09.102Z,1.60
2018-01-12T19:40:36.609Z,1.70
2018-01-12T19:43:04.172Z,1.70
2018-01-12T19:45:31.675Z,1.80
2018-01-12T19:47:59.194Z,1.70
2018-01-12T19:50:26.689Z,1.70
2018-01-12T19:52:54.202Z,1.70
2018-01-12T19:55:21.703Z,1.60
2018-01-12T19:57:49.260Z,1.60
2018-01-12T20:00:16.763Z,1.60
2018-01-12T20:02:44.282Z,1.60
2018-01-12T20:05:11.782Z,1.70
2018-01-12T20:07:39.300Z,1.60
2018-01-12T20:10:07.574Z,1.70
2018-01-12T20:12:35.106Z,1.70
2018-01-12T20:15:02.602Z,1.60
2018-01-12T20:17:30.882Z,1.60
2018-01-12T20:19:59.210Z,1.70
2018-01-12T20:22:26.777Z,1.60
2018-01-12T20:24:54.320Z,1.70
2018-01-12T20:27:21.887Z,1.70
2018-01-12T20:29:49.404Z,1.60
2018-01-12T20:32:16.941Z,1.60
2018-01-12T20:34:44.438Z,1.60
2018-01-12T20:37:12.057Z,1.70
2018-01-12T20:39:39.613Z,1.60
2018-01-12T20:42:07.185Z,1.60
2018-01-12T20:44:35.445Z,1.50
2018-01-12T20:47:03.016Z,1.50
2018-01-12T20:49:31.291Z,1.60
2018-01-12T20:51:59.635Z,1.60
2018-01-12T20:54:27.145Z,1.60
2018-01-12T20:56:55.475Z,1.60
2018-01-12T20:59:23.049Z,1.60
2018-01-12T21:01:50.608Z,1.60
2018-01-12T21:04:18.151Z,1.60
2018-01-12T21:06:45.716Z,1.60
2018-01-12T21:09:13.242Z,1.60
2018-01-12T21:11:40.801Z,1.60
2018-01-12T21:14:08.363Z,1.60
2018-01-12T21:16:35.889Z,1.60
2018-01-12T21:19:04.246Z,1.60
2018-01-12T21:21:31.804Z,1.60
2018-01-12T21:23:59.354Z,1.60
2018-01-12T21:26:26.854Z,1.60
2018-01-12T21:28:54.457Z,1.60
2018-01-12T21:31:22.732Z,1.60
2018-01-12T21:33:50.242Z,1.60
2018-01-12T21:36:18.568Z,1.50
2018-01-12T21:38:46.215Z,1.50
2018-01-12T21:41:13.790Z,1.60
2018-01-12T21:43:41.400Z,1.60
2018-01-12T21:46:08.936Z,1.60
2018-01-12T21:48:37.269Z,1.60
2018-01-12T21:51:04.778Z,1.60
2018-01-12T21:53:33.173Z,1.60
2018-01-12T21:56:01.426Z,1.50
2018-01-12T21:58:28.941Z,1.50
2018-01-12T22:00:56.437Z,1.50
2018-01-12T22:03:23.995Z,1.60
2018-01-12T22:05:51.495Z,1.60
2018-01-12T22:08:19.024Z,1.50
2018-01-12T22:10:47.294Z,1.50
2018-01-12T22:13:14.851Z,1.50
2018-01-12T22:15:42.351Z,1.50
2018-01-12T22:18:09.886Z,1.60
2018-01-12T22:20:38.166Z,1.50
2018-01-12T22:23:06.488Z,1.60
2018-01-12T22:25:34.778Z,1.60
2018-01-12T22:28:02.297Z,1.60
2018-01-12T22:30:29.806Z,1.60
2018-01-12T22:32:57.368Z,1.50
2018-01-12T22:35:24.870Z,1.50
2018-01-12T22:37:52.386Z,1.50
2018-01-12T22:40:19.882Z,1.50
2018-01-12T22:42:47.410Z,1.50
2018-01-12T22:45:14.911Z,1.40
2018-01-12T22:47:42.536Z,1.50
2018-01-12T22:52:45.862Z,1.50
2018-01-12T22:55:13.364Z,1.40
2018-01-12T22:57:41.013Z,1.40
2018-01-12T23:00:08.524Z,1.40
2018-01-12T23:02:36.894Z,1.50
2018-01-12T23:05:04.419Z,1.50
2018-01-12T23:07:31.961Z,1.60
2018-01-12T23:09:59.470Z,1.60
2018-01-12T23:12:27.046Z,1.50
2018-01-12T23:14:55.330Z,1.60
2018-01-12T23:17:22.924Z,1.60
2018-01-12T23:19:50.425Z,1.50
2018-01-12T23:22:17.986Z,1.50
2018-01-12T23:24:46.259Z,1.50
2018-01-12T23:27:14.542Z,1.60
2018-01-12T23:29:42.822Z,1.60
2018-01-12T23:32:11.081Z,1.60
2018-01-12T23:34:38.594Z,1.50
2018-01-12T23:37:06.092Z,1.50
2018-01-12T23:39:33.601Z,1.50
2018-01-12T23:42:01.102Z,1.50
2018-01-12T23:44:28.617Z,1.40
2018-01-12T23:46:56.114Z,1.50
2018-01-12T23:49:23.630Z,1.50
2018-01-12T23:51:51.331Z,1.50
2018-01-12T23:54:18.846Z,1.40
2018-01-12T23:56:46.347Z,1.40
2018-01-12T23:59:13.858Z,1.50
